TCA7224 SVCU-SVPC
Flight info
| Callsign | TCA7224 |
|---|---|
| Flight time | 0h 49m |
| Altitude | 24000 |
| Route | PORGA A552 MIQ A315 ATONO G427 KOTUL |
| Aircraft | A321/M-SDE3FGHIRWY/LB1 |
Departure
| Time | 2026-04-21 16:06 |
|---|---|
| Airport | Antonio José de Sucre Airport (SVCU) |
Arrival
| Time | 2026-04-21 16:56 |
|---|---|
| Airport | General Bartolome Salom International Airport (SVPC) |
| Time | Latitude | Longitude | Altitude | Speed | Heading |
|---|---|---|---|---|---|
| 2026-04-21 15:50 | 10.45206 | -64.13318 | 61 ft | 0 kts | 333° |
| 2026-04-21 15:54 | 10.45198 | -64.13315 | 61 ft | 2 kts | 333° |
| 2026-04-21 15:54 | 10.45185 | -64.13308 | 61 ft | 2 kts | 333° |
| 2026-04-21 15:54 | 10.45171 | -64.13301 | 61 ft | 2 kts | 332° |
| 2026-04-21 15:55 | 10.45163 | -64.13287 | 61 ft | 2 kts | 266° |
| 2026-04-21 15:55 | 10.45169 | -64.13271 | 61 ft | 2 kts | 237° |
| 2026-04-21 15:55 | 10.45176 | -64.13258 | 61 ft | 0 kts | 247° |
| 2026-04-21 15:55 | 10.45176 | -64.13257 | 61 ft | 0 kts | 246° |
| 2026-04-21 15:57 | 10.45170 | -64.13271 | 61 ft | 3 kts | 247° |
| 2026-04-21 15:57 | 10.45160 | -64.13281 | 61 ft | 1 kts | 199° |
| 2026-04-21 15:58 | 10.45147 | -64.13285 | 61 ft | 1 kts | 188° |
| 2026-04-21 15:58 | 10.45134 | -64.13284 | 61 ft | 1 kts | 174° |
| 2026-04-21 15:58 | 10.45114 | -64.13278 | 61 ft | 3 kts | 158° |
| 2026-04-21 15:58 | 10.45089 | -64.13279 | 62 ft | 3 kts | 206° |
| 2026-04-21 15:59 | 10.45069 | -64.13297 | 62 ft | 4 kts | 232° |
| 2026-04-21 15:59 | 10.45056 | -64.13321 | 62 ft | 3 kts | 243° |
| 2026-04-21 15:59 | 10.45046 | -64.13341 | 62 ft | 3 kts | 243° |
| 2026-04-21 15:59 | 10.45036 | -64.13361 | 62 ft | 3 kts | 244° |
| 2026-04-21 16:00 | 10.45027 | -64.13380 | 63 ft | 2 kts | 244° |
| 2026-04-21 16:00 | 10.45021 | -64.13392 | 63 ft | 2 kts | 244° |
| 2026-04-21 16:00 | 10.45002 | -64.13435 | 63 ft | 10 kts | 245° |
| 2026-04-21 16:00 | 10.44964 | -64.13507 | 64 ft | 12 kts | 242° |
| 2026-04-21 16:01 | 10.44923 | -64.13586 | 64 ft | 12 kts | 242° |
| 2026-04-21 16:01 | 10.44880 | -64.13669 | 64 ft | 11 kts | 243° |
| 2026-04-21 16:01 | 10.44839 | -64.13696 | 64 ft | 6 kts | 168° |
| 2026-04-21 16:01 | 10.44794 | -64.13674 | 65 ft | 7 kts | 147° |
| 2026-04-21 16:02 | 10.44744 | -64.13650 | 65 ft | 8 kts | 174° |
| 2026-04-21 16:02 | 10.44701 | -64.13687 | 65 ft | 9 kts | 241° |
| 2026-04-21 16:02 | 10.44667 | -64.13750 | 65 ft | 10 kts | 241° |
| 2026-04-21 16:02 | 10.44630 | -64.13820 | 66 ft | 11 kts | 242° |
| 2026-04-21 16:03 | 10.44590 | -64.13895 | 66 ft | 12 kts | 242° |
| 2026-04-21 16:03 | 10.44547 | -64.13976 | 66 ft | 13 kts | 242° |
| 2026-04-21 16:03 | 10.44503 | -64.14060 | 67 ft | 13 kts | 243° |
| 2026-04-21 16:03 | 10.44459 | -64.14148 | 67 ft | 14 kts | 243° |
| 2026-04-21 16:04 | 10.44413 | -64.14238 | 68 ft | 14 kts | 243° |
| 2026-04-21 16:04 | 10.44368 | -64.14328 | 69 ft | 14 kts | 243° |
| 2026-04-21 16:04 | 10.44345 | -64.14424 | 70 ft | 13 kts | 269° |
| 2026-04-21 16:04 | 10.44335 | -64.14481 | 70 ft | 5 kts | 221° |
| 2026-04-21 16:05 | 10.44303 | -64.14476 | 70 ft | 4 kts | 113° |
| 2026-04-21 16:05 | 10.44308 | -64.14455 | 70 ft | 0 kts | 60° |
| 2026-04-21 16:05 | 10.44317 | -64.14439 | 70 ft | 11 kts | 61° |
| 2026-04-21 16:05 | 10.44423 | -64.14232 | 68 ft | 62 kts | 62° |
| 2026-04-21 16:06 | 10.44737 | -64.13628 | 65 ft | 128 kts | 62° |
| 2026-04-21 16:06 | 10.45240 | -64.12670 | 206 ft | 166 kts | 62° |
| 2026-04-21 16:06 | 10.45778 | -64.11641 | 818 ft | 165 kts | 62° |
| 2026-04-21 16:06 | 10.46292 | -64.10628 | 1463 ft | 163 kts | 63° |
| 2026-04-21 16:07 | 10.46805 | -64.09619 | 2033 ft | 160 kts | 63° |
| 2026-04-21 16:07 | 10.47331 | -64.08630 | 2555 ft | 160 kts | 57° |
| 2026-04-21 16:07 | 10.48163 | -64.07887 | 3026 ft | 164 kts | 22° |
| 2026-04-21 16:07 | 10.49302 | -64.07858 | 3454 ft | 173 kts | 340° |
| 2026-04-21 16:08 | 10.50319 | -64.10020 | 4178 ft | 198 kts | 257° |
| 2026-04-21 16:08 | 10.49806 | -64.11389 | 4392 ft | 221 kts | 246° |
| 2026-04-21 16:08 | 10.49127 | -64.12869 | 4692 ft | 240 kts | 244° |
| 2026-04-21 16:09 | 10.48334 | -64.14473 | 4978 ft | 263 kts | 242° |
| 2026-04-21 16:09 | 10.47465 | -64.16113 | 5614 ft | 270 kts | 240° |
| 2026-04-21 16:09 | 10.46527 | -64.17803 | 6255 ft | 277 kts | 241° |
| 2026-04-21 16:09 | 10.45591 | -64.19536 | 6852 ft | 287 kts | 241° |
| 2026-04-21 16:10 | 10.44745 | -64.21381 | 7590 ft | 289 kts | 254° |
| 2026-04-21 16:10 | 10.44388 | -64.23383 | 8354 ft | 290 kts | 268° |
| 2026-04-21 16:10 | 10.44466 | -64.25434 | 9069 ft | 292 kts | 276° |
| 2026-04-21 16:10 | 10.44699 | -64.27485 | 9735 ft | 295 kts | 278° |
| 2026-04-21 16:11 | 10.44940 | -64.29539 | 10366 ft | 298 kts | 277° |
| 2026-04-21 16:11 | 10.45172 | -64.31680 | 10728 ft | 313 kts | 276° |
| 2026-04-21 16:11 | 10.45398 | -64.33954 | 11026 ft | 329 kts | 276° |
| 2026-04-21 16:11 | 10.45619 | -64.36285 | 11469 ft | 338 kts | 276° |
| 2026-04-21 16:12 | 10.45834 | -64.38661 | 12060 ft | 341 kts | 275° |
| 2026-04-21 16:12 | 10.46050 | -64.41069 | 12707 ft | 342 kts | 275° |
| 2026-04-21 16:12 | 10.46264 | -64.43484 | 13288 ft | 345 kts | 275° |
| 2026-04-21 16:12 | 10.46475 | -64.45899 | 13867 ft | 347 kts | 276° |
| 2026-04-21 16:13 | 10.46693 | -64.48364 | 14408 ft | 351 kts | 276° |
| 2026-04-21 16:13 | 10.46908 | -64.50820 | 14925 ft | 354 kts | 275° |
| 2026-04-21 16:13 | 10.47130 | -64.53327 | 15424 ft | 357 kts | 276° |
| 2026-04-21 16:13 | 10.47350 | -64.55856 | 15906 ft | 361 kts | 275° |
| 2026-04-21 16:14 | 10.47537 | -64.58378 | 16376 ft | 364 kts | 275° |
| 2026-04-21 16:14 | 10.47714 | -64.60976 | 16855 ft | 367 kts | 275° |
| 2026-04-21 16:14 | 10.47889 | -64.63571 | 17287 ft | 371 kts | 275° |
| 2026-04-21 16:14 | 10.48065 | -64.66158 | 17723 ft | 374 kts | 275° |
| 2026-04-21 16:15 | 10.48249 | -64.68835 | 18180 ft | 377 kts | 275° |
| 2026-04-21 16:15 | 10.48431 | -64.71493 | 18604 ft | 380 kts | 275° |
| 2026-04-21 16:15 | 10.48617 | -64.74168 | 19038 ft | 382 kts | 275° |
| 2026-04-21 16:15 | 10.48803 | -64.76864 | 19468 ft | 385 kts | 275° |
| 2026-04-21 16:16 | 10.48989 | -64.79559 | 19894 ft | 387 kts | 275° |
| 2026-04-21 16:16 | 10.49178 | -64.82295 | 20319 ft | 389 kts | 275° |
| 2026-04-21 16:16 | 10.49368 | -64.85056 | 20741 ft | 391 kts | 275° |
| 2026-04-21 16:16 | 10.49555 | -64.87785 | 21146 ft | 393 kts | 275° |
| 2026-04-21 16:17 | 10.49745 | -64.90566 | 21544 ft | 395 kts | 275° |
| 2026-04-21 16:17 | 10.49936 | -64.93342 | 21931 ft | 397 kts | 275° |
| 2026-04-21 16:17 | 10.50129 | -64.96154 | 22308 ft | 399 kts | 275° |
| 2026-04-21 16:17 | 10.50323 | -64.98981 | 22677 ft | 402 kts | 275° |
| 2026-04-21 16:18 | 10.50509 | -65.01800 | 23044 ft | 404 kts | 275° |
| 2026-04-21 16:18 | 10.50693 | -65.04668 | 23420 ft | 405 kts | 275° |
| 2026-04-21 16:18 | 10.50877 | -65.07529 | 23790 ft | 407 kts | 275° |
| 2026-04-21 16:18 | 10.51060 | -65.10396 | 23932 ft | 408 kts | 275° |
| 2026-04-21 16:19 | 10.51243 | -65.13275 | 23935 ft | 407 kts | 275° |
| 2026-04-21 16:19 | 10.51426 | -65.16156 | 23936 ft | 407 kts | 275° |
| 2026-04-21 16:19 | 10.51609 | -65.19016 | 23937 ft | 407 kts | 274° |
| 2026-04-21 16:19 | 10.51792 | -65.21895 | 23939 ft | 407 kts | 275° |
| 2026-04-21 16:20 | 10.51975 | -65.24770 | 23941 ft | 407 kts | 275° |
| 2026-04-21 16:20 | 10.52162 | -65.27609 | 23942 ft | 406 kts | 275° |
| 2026-04-21 16:20 | 10.52358 | -65.30473 | 23940 ft | 406 kts | 275° |
| 2026-04-21 16:20 | 10.52556 | -65.33346 | 23943 ft | 406 kts | 275° |
| 2026-04-21 16:21 | 10.52753 | -65.36211 | 23943 ft | 406 kts | 275° |
| 2026-04-21 16:21 | 10.52946 | -65.39044 | 23942 ft | 407 kts | 275° |
| 2026-04-21 16:21 | 10.53142 | -65.41920 | 23942 ft | 407 kts | 275° |
| 2026-04-21 16:21 | 10.53337 | -65.44784 | 23944 ft | 407 kts | 275° |
| 2026-04-21 16:22 | 10.53530 | -65.47624 | 23945 ft | 407 kts | 275° |
| 2026-04-21 16:22 | 10.53724 | -65.50491 | 23948 ft | 408 kts | 275° |
| 2026-04-21 16:22 | 10.53918 | -65.53365 | 23949 ft | 408 kts | 275° |
| 2026-04-21 16:22 | 10.54112 | -65.56236 | 23947 ft | 408 kts | 275° |
| 2026-04-21 16:23 | 10.54307 | -65.59120 | 23950 ft | 408 kts | 275° |
| 2026-04-21 16:23 | 10.54500 | -65.61997 | 23951 ft | 408 kts | 275° |
| 2026-04-21 16:23 | 10.54692 | -65.64835 | 23950 ft | 407 kts | 275° |
| 2026-04-21 16:23 | 10.54885 | -65.67717 | 23950 ft | 408 kts | 275° |
| 2026-04-21 16:24 | 10.55078 | -65.70586 | 23948 ft | 407 kts | 275° |
| 2026-04-21 16:24 | 10.55270 | -65.73457 | 23948 ft | 407 kts | 275° |
| 2026-04-21 16:24 | 10.55462 | -65.76328 | 23949 ft | 407 kts | 275° |
| 2026-04-21 16:24 | 10.55654 | -65.79210 | 23951 ft | 407 kts | 275° |
| 2026-04-21 16:25 | 10.55844 | -65.82063 | 23950 ft | 407 kts | 275° |
| 2026-04-21 16:25 | 10.56036 | -65.84946 | 23948 ft | 407 kts | 275° |
| 2026-04-21 16:25 | 10.56227 | -65.87813 | 23946 ft | 407 kts | 275° |
| 2026-04-21 16:25 | 10.56417 | -65.90675 | 23948 ft | 407 kts | 275° |
| 2026-04-21 16:26 | 10.56608 | -65.93555 | 23949 ft | 408 kts | 275° |
| 2026-04-21 16:26 | 10.56797 | -65.96394 | 23948 ft | 408 kts | 275° |
| 2026-04-21 16:26 | 10.56986 | -65.99269 | 23947 ft | 408 kts | 275° |
| 2026-04-21 16:26 | 10.57177 | -66.02150 | 23947 ft | 408 kts | 275° |
| 2026-04-21 16:27 | 10.57367 | -66.05044 | 23950 ft | 408 kts | 274° |
| 2026-04-21 16:27 | 10.57509 | -66.07898 | 23952 ft | 408 kts | 273° |
| 2026-04-21 16:27 | 10.57618 | -66.10783 | 23952 ft | 408 kts | 273° |
| 2026-04-21 16:27 | 10.57723 | -66.13635 | 23952 ft | 408 kts | 273° |
| 2026-04-21 16:28 | 10.57829 | -66.16518 | 23955 ft | 408 kts | 273° |
| 2026-04-21 16:28 | 10.57939 | -66.19421 | 23957 ft | 408 kts | 273° |
| 2026-04-21 16:28 | 10.58049 | -66.22304 | 23958 ft | 408 kts | 273° |
| 2026-04-21 16:28 | 10.58161 | -66.25186 | 23960 ft | 408 kts | 273° |
| 2026-04-21 16:29 | 10.58271 | -66.28047 | 23965 ft | 408 kts | 273° |
| 2026-04-21 16:29 | 10.58384 | -66.30942 | 23971 ft | 408 kts | 273° |
| 2026-04-21 16:29 | 10.58496 | -66.33823 | 23979 ft | 408 kts | 273° |
| 2026-04-21 16:29 | 10.58607 | -66.36712 | 23988 ft | 408 kts | 273° |
| 2026-04-21 16:30 | 10.58720 | -66.39593 | 23998 ft | 408 kts | 273° |
| 2026-04-21 16:30 | 10.58831 | -66.42476 | 24006 ft | 408 kts | 273° |
| 2026-04-21 16:30 | 10.58942 | -66.45365 | 24015 ft | 408 kts | 273° |
| 2026-04-21 16:30 | 10.59051 | -66.48219 | 24022 ft | 408 kts | 273° |
| 2026-04-21 16:31 | 10.59161 | -66.51114 | 24029 ft | 408 kts | 273° |
| 2026-04-21 16:31 | 10.59271 | -66.53970 | 24032 ft | 408 kts | 273° |
| 2026-04-21 16:31 | 10.59381 | -66.56854 | 24033 ft | 408 kts | 273° |
| 2026-04-21 16:31 | 10.59491 | -66.59759 | 24032 ft | 408 kts | 273° |
| 2026-04-21 16:32 | 10.59600 | -66.62642 | 24030 ft | 408 kts | 273° |
| 2026-04-21 16:32 | 10.59710 | -66.65538 | 24026 ft | 408 kts | 273° |
| 2026-04-21 16:32 | 10.59818 | -66.68401 | 24024 ft | 408 kts | 273° |
| 2026-04-21 16:32 | 10.59929 | -66.71331 | 24023 ft | 408 kts | 273° |
| 2026-04-21 16:33 | 10.60037 | -66.74215 | 24022 ft | 408 kts | 273° |
| 2026-04-21 16:33 | 10.60144 | -66.77063 | 24021 ft | 408 kts | 273° |
| 2026-04-21 16:33 | 10.60252 | -66.79970 | 24022 ft | 409 kts | 273° |
| 2026-04-21 16:33 | 10.60360 | -66.82851 | 24027 ft | 408 kts | 273° |
| 2026-04-21 16:34 | 10.60466 | -66.85719 | 24031 ft | 408 kts | 273° |
| 2026-04-21 16:34 | 10.60573 | -66.88609 | 24036 ft | 408 kts | 273° |
| 2026-04-21 16:34 | 10.60681 | -66.91503 | 24040 ft | 408 kts | 273° |
| 2026-04-21 16:34 | 10.60787 | -66.94389 | 24042 ft | 408 kts | 273° |
| 2026-04-21 16:35 | 10.61092 | -66.97250 | 24035 ft | 407 kts | 284° |
| 2026-04-21 16:35 | 10.62047 | -66.99945 | 24043 ft | 406 kts | 297° |
| 2026-04-21 16:35 | 10.63610 | -67.02361 | 24047 ft | 405 kts | 309° |
| 2026-04-21 16:35 | 10.65395 | -67.04582 | 24038 ft | 405 kts | 310° |
| 2026-04-21 16:36 | 10.67191 | -67.06762 | 24027 ft | 405 kts | 310° |
| 2026-04-21 16:36 | 10.68998 | -67.08967 | 24015 ft | 405 kts | 310° |
| 2026-04-21 16:36 | 10.70801 | -67.11184 | 24005 ft | 405 kts | 310° |
| 2026-04-21 16:36 | 10.72588 | -67.13395 | 23992 ft | 405 kts | 310° |
| 2026-04-21 16:37 | 10.74386 | -67.15627 | 23980 ft | 405 kts | 310° |
| 2026-04-21 16:37 | 10.76148 | -67.17819 | 23971 ft | 404 kts | 310° |
| 2026-04-21 16:37 | 10.77939 | -67.20049 | 23969 ft | 404 kts | 310° |
| 2026-04-21 16:37 | 10.79684 | -67.22283 | 23966 ft | 404 kts | 308° |
| 2026-04-21 16:38 | 10.81396 | -67.24572 | 23962 ft | 404 kts | 308° |
| 2026-04-21 16:38 | 10.83083 | -67.26841 | 23960 ft | 404 kts | 308° |
| 2026-04-21 16:38 | 10.84782 | -67.29131 | 23960 ft | 404 kts | 308° |
| 2026-04-21 16:38 | 10.86488 | -67.31428 | 23959 ft | 404 kts | 308° |
| 2026-04-21 16:39 | 10.88185 | -67.33715 | 23959 ft | 405 kts | 308° |
| 2026-04-21 16:39 | 10.89868 | -67.35983 | 23959 ft | 405 kts | 308° |
| 2026-04-21 16:39 | 10.91579 | -67.38290 | 23958 ft | 405 kts | 308° |
| 2026-04-21 16:39 | 10.93251 | -67.40544 | 23807 ft | 402 kts | 308° |
| 2026-04-21 16:40 | 10.94946 | -67.42829 | 23071 ft | 407 kts | 308° |
| 2026-04-21 16:40 | 10.96531 | -67.45245 | 22170 ft | 415 kts | 297° |
| 2026-04-21 16:40 | 10.97227 | -67.48097 | 21479 ft | 419 kts | 273° |
| 2026-04-21 16:40 | 10.96781 | -67.50970 | 20968 ft | 418 kts | 251° |
| 2026-04-21 16:41 | 10.95277 | -67.53521 | 20458 ft | 415 kts | 231° |
| 2026-04-21 16:41 | 10.93318 | -67.55684 | 19966 ft | 412 kts | 226° |
| 2026-04-21 16:41 | 10.91321 | -67.57771 | 19470 ft | 409 kts | 226° |
| 2026-04-21 16:41 | 10.89398 | -67.59847 | 18987 ft | 406 kts | 227° |
| 2026-04-21 16:42 | 10.87494 | -67.61980 | 18478 ft | 403 kts | 228° |
| 2026-04-21 16:42 | 10.85655 | -67.64094 | 17994 ft | 400 kts | 229° |
| 2026-04-21 16:42 | 10.83818 | -67.66235 | 17500 ft | 397 kts | 229° |
| 2026-04-21 16:42 | 10.81998 | -67.68368 | 17029 ft | 394 kts | 229° |
| 2026-04-21 16:43 | 10.80214 | -67.70464 | 16568 ft | 391 kts | 229° |
| 2026-04-21 16:43 | 10.78436 | -67.72553 | 16182 ft | 385 kts | 229° |
| 2026-04-21 16:43 | 10.76698 | -67.74593 | 15809 ft | 379 kts | 229° |
| 2026-04-21 16:43 | 10.74988 | -67.76599 | 15394 ft | 374 kts | 229° |
| 2026-04-21 16:44 | 10.73284 | -67.78599 | 15059 ft | 368 kts | 229° |
| 2026-04-21 16:44 | 10.71613 | -67.80562 | 14713 ft | 363 kts | 229° |
| 2026-04-21 16:44 | 10.69973 | -67.82488 | 14416 ft | 356 kts | 229° |
| 2026-04-21 16:44 | 10.68362 | -67.84380 | 14129 ft | 349 kts | 229° |
| 2026-04-21 16:45 | 10.66801 | -67.86214 | 13760 ft | 341 kts | 229° |
| 2026-04-21 16:45 | 10.65256 | -67.88027 | 13285 ft | 334 kts | 229° |
| 2026-04-21 16:45 | 10.63761 | -67.89782 | 12825 ft | 329 kts | 229° |
| 2026-04-21 16:45 | 10.62275 | -67.91528 | 12382 ft | 321 kts | 229° |
| 2026-04-21 16:46 | 10.60873 | -67.93260 | 11875 ft | 311 kts | 237° |
| 2026-04-21 16:46 | 10.60193 | -67.95258 | 11409 ft | 300 kts | 268° |
| 2026-04-21 16:46 | 10.60574 | -67.97295 | 10881 ft | 292 kts | 294° |
| 2026-04-21 16:46 | 10.61617 | -67.99047 | 10388 ft | 285 kts | 308° |
| 2026-04-21 16:47 | 10.62778 | -68.00622 | 10017 ft | 278 kts | 304° |
| 2026-04-21 16:47 | 10.63747 | -68.02316 | 9627 ft | 274 kts | 296° |
| 2026-04-21 16:47 | 10.64438 | -68.04114 | 9257 ft | 268 kts | 287° |
| 2026-04-21 16:47 | 10.64847 | -68.05913 | 8901 ft | 260 kts | 279° |
| 2026-04-21 16:48 | 10.65018 | -68.07731 | 8472 ft | 254 kts | 272° |
| 2026-04-21 16:48 | 10.64972 | -68.09498 | 8075 ft | 249 kts | 265° |
| 2026-04-21 16:48 | 10.64730 | -68.11237 | 7652 ft | 245 kts | 259° |
| 2026-04-21 16:48 | 10.64321 | -68.12882 | 7242 ft | 240 kts | 253° |
| 2026-04-21 16:49 | 10.63756 | -68.14442 | 7001 ft | 226 kts | 248° |
| 2026-04-21 16:49 | 10.63085 | -68.15862 | 6639 ft | 219 kts | 242° |
| 2026-04-21 16:49 | 10.62315 | -68.17168 | 6289 ft | 212 kts | 237° |
| 2026-04-21 16:49 | 10.61469 | -68.18350 | 5969 ft | 205 kts | 232° |
| 2026-04-21 16:50 | 10.60543 | -68.19435 | 5666 ft | 198 kts | 226° |
| 2026-04-21 16:50 | 10.59579 | -68.20393 | 5322 ft | 189 kts | 221° |
| 2026-04-21 16:50 | 10.58581 | -68.21236 | 4933 ft | 183 kts | 217° |
| 2026-04-21 16:50 | 10.57554 | -68.21976 | 4554 ft | 179 kts | 213° |
| 2026-04-21 16:51 | 10.56504 | -68.22620 | 4199 ft | 175 kts | 208° |
| 2026-04-21 16:51 | 10.55424 | -68.23180 | 3831 ft | 170 kts | 203° |
| 2026-04-21 16:51 | 10.54327 | -68.23476 | 3435 ft | 161 kts | 168° |
| 2026-04-21 16:51 | 10.53475 | -68.22902 | 3055 ft | 143 kts | 113° |
| 2026-04-21 16:52 | 10.53164 | -68.21950 | 2830 ft | 141 kts | 102° |
| 2026-04-21 16:52 | 10.52880 | -68.20991 | 2609 ft | 141 kts | 103° |
| 2026-04-21 16:52 | 10.52582 | -68.20052 | 2416 ft | 141 kts | 104° |
| 2026-04-21 16:52 | 10.52270 | -68.19101 | 2229 ft | 140 kts | 104° |
| 2026-04-21 16:53 | 10.51955 | -68.18160 | 2040 ft | 140 kts | 104° |
| 2026-04-21 16:53 | 10.51638 | -68.17219 | 1852 ft | 140 kts | 105° |
| 2026-04-21 16:53 | 10.51335 | -68.16290 | 1664 ft | 140 kts | 105° |
| 2026-04-21 16:53 | 10.50919 | -68.15383 | 1514 ft | 142 kts | 117° |
| 2026-04-21 16:54 | 10.50347 | -68.14556 | 1322 ft | 142 kts | 123° |
| 2026-04-21 16:54 | 10.49762 | -68.13748 | 1036 ft | 139 kts | 120° |
| 2026-04-21 16:54 | 10.49272 | -68.12918 | 857 ft | 138 kts | 116° |
| 2026-04-21 16:54 | 10.48846 | -68.12044 | 729 ft | 137 kts | 111° |
| 2026-04-21 16:55 | 10.48539 | -68.11123 | 600 ft | 137 kts | 103° |
| 2026-04-21 16:55 | 10.48349 | -68.10171 | 426 ft | 137 kts | 96° |
| 2026-04-21 16:55 | 10.48241 | -68.09199 | 225 ft | 136 kts | 94° |
| 2026-04-21 16:55 | 10.48143 | -68.08246 | 67 ft | 135 kts | 95° |
| 2026-04-21 16:56 | 10.48055 | -68.07403 | 49 ft | 84 kts | 96° |
| 2026-04-21 16:56 | 10.48017 | -68.07030 | 44 ft | 43 kts | 96° |
| 2026-04-21 16:56 | 10.47987 | -68.06739 | 41 ft | 39 kts | 96° |
| 2026-04-21 16:56 | 10.47963 | -68.06477 | 38 ft | 34 kts | 96° |
| 2026-04-21 16:57 | 10.47926 | -68.06340 | 37 ft | 13 kts | 139° |
| 2026-04-21 16:57 | 10.47853 | -68.06329 | 37 ft | 11 kts | 189° |
| 2026-04-21 16:57 | 10.47773 | -68.06340 | 37 ft | 11 kts | 197° |
| 2026-04-21 16:57 | 10.47738 | -68.06401 | 38 ft | 11 kts | 271° |
| 2026-04-21 16:58 | 10.47746 | -68.06481 | 39 ft | 11 kts | 277° |
| 2026-04-21 16:58 | 10.47756 | -68.06562 | 39 ft | 11 kts | 277° |
| 2026-04-21 16:58 | 10.47765 | -68.06645 | 40 ft | 11 kts | 276° |
| 2026-04-21 16:58 | 10.47775 | -68.06728 | 41 ft | 11 kts | 276° |
| 2026-04-21 16:59 | 10.47784 | -68.06810 | 42 ft | 11 kts | 276° |
| 2026-04-21 16:59 | 10.47793 | -68.06892 | 43 ft | 11 kts | 277° |
| 2026-04-21 16:59 | 10.47802 | -68.06970 | 45 ft | 11 kts | 275° |
| 2026-04-21 16:59 | 10.47809 | -68.07047 | 46 ft | 10 kts | 276° |
| 2026-04-21 17:00 | 10.47817 | -68.07121 | 47 ft | 10 kts | 276° |
| 2026-04-21 17:00 | 10.47823 | -68.07196 | 48 ft | 10 kts | 274° |
| 2026-04-21 17:00 | 10.47826 | -68.07233 | 48 ft | 2 kts | 276° |
| 2026-04-21 17:00 | 10.47824 | -68.07246 | 48 ft | 0 kts | 243° |
| 2026-04-21 17:01 | 10.47820 | -68.07250 | 48 ft | 3 kts | 224° |
| 2026-04-21 17:01 | 10.47799 | -68.07256 | 49 ft | 2 kts | 178° |
| 2026-04-21 17:01 | 10.47786 | -68.07256 | 49 ft | 0 kts | 185° |
| 2026-04-21 17:01 | 10.47782 | -68.07256 | 49 ft | 0 kts | 185° |
| 2026-04-21 17:02 | 10.47781 | -68.07256 | 49 ft | 0 kts | 185° |